Time;durP1;ratioP1;P1;durP2;ratioP2;P2;SDS_P1;SDS_P2;PMS_P1;PMS_P2;Temp;Humidity;BMP_temperature;BMP_pressure;BME280_temperature;BME280_humidity;BME280_pressure;Samples;Min_cycle;Max_cycle;Signal;HPM_P1;HPM_P2
2022/07/03 00:00:13;;;;;;;3.75;3.55;;;;;;;18.38;52.21;101127.06;5070812;28;20354;-27
2022/07/03 00:02:39;;;;;;;3.55;3.33;;;;;;;18.37;52.08;101128.00;5072872;28;20028;-28
2022/07/03 00:05:05;;;;;;;4.05;3.67;;;;;;;18.32;52.06;101121.00;5072768;28;20043;-27
2022/07/03 00:07:30;;;;;;;3.60;3.30;;;;;;;18.31;52.11;101121.91;5053483;28;20362;-27
2022/07/03 00:09:56;;;;;;;3.92;3.63;;;;;;;18.31;52.31;101124.59;5067959;28;20028;-27
2022/07/03 00:12:21;;;;;;;3.90;3.70;;;;;;;18.29;52.41;101121.13;5069737;28;20494;-27
2022/07/03 00:14:47;;;;;;;3.95;3.65;;;;;;;18.27;52.42;101122.09;5066835;28;20028;-27
2022/07/03 00:17:13;;;;;;;4.13;3.83;;;;;;;18.26;52.50;101115.88;5071494;28;20374;-27
2022/07/03 00:19:38;;;;;;;4.20;3.90;;;;;;;18.25;52.42;101122.16;5067395;28;20082;-27
2022/07/03 00:22:05;;;;;;;4.13;3.83;;;;;;;18.24;52.64;101117.72;5068915;28;20100;-27
2022/07/03 00:24:43;;;;;;;4.35;4.03;;;;;;;18.22;52.65;101119.56;5070244;28;20028;-26
2022/07/03 00:27:09;;;;;;;4.10;3.80;;;;;;;18.18;52.43;101118.78;5072382;28;20032;-26
2022/07/03 00:29:42;;;;;;;4.68;4.38;;;;;;;18.16;52.63;101114.44;5072150;28;20031;-27
2022/07/03 00:32:19;;;;;;;4.20;3.90;;;;;;;18.15;52.67;101115.38;5073382;28;20470;-25
2022/07/03 00:34:47;;;;;;;4.47;4.20;;;;;;;18.13;52.66;101117.19;5066308;28;20052;-24
2022/07/03 00:37:12;;;;;;;4.32;4.03;;;;;;;18.10;52.39;101114.66;5066484;28;20028;-25
2022/07/03 00:39:40;;;;;;;4.32;4.03;;;;;;;18.07;52.96;101105.78;5069084;28;20024;-25
2022/07/03 00:42:06;;;;;;;4.43;4.10;;;;;;;18.04;53.06;101102.38;5071622;28;20052;-27
2022/07/03 00:44:44;;;;;;;5.07;4.68;;;;;;;18.04;53.08;101105.88;5067453;28;20400;-27
2022/07/03 00:47:14;;;;;;;4.28;4.07;;;;;;;18.01;52.71;101103.31;5071512;28;20032;-27
2022/07/03 00:49:40;;;;;;;4.78;4.47;;;;;;;17.99;52.76;101105.19;5068714;28;20415;-27
2022/07/03 00:52:08;;;;;;;4.60;4.20;;;;;;;17.97;53.05;101108.81;5069832;28;20044;-27
2022/07/03 00:54:34;;;;;;;5.03;4.63;;;;;;;17.95;52.91;101106.22;5064894;28;20476;-27
2022/07/03 00:57:01;;;;;;;4.78;4.38;;;;;;;17.94;52.89;101109.81;5068589;28;20025;-27
2022/07/03 00:59:27;;;;;;;5.55;5.20;;;;;;;17.95;53.11;101106.22;5048594;28;20028;-27
2022/07/03 01:02:04;;;;;;;5.05;4.65;;;;;;;17.91;52.88;101109.91;5070845;28;20024;-27
2022/07/03 01:04:51;;;;;;;4.68;4.30;;;;;;;17.90;53.16;101102.78;5068168;28;20432;-25
2022/07/03 01:07:37;;;;;;;5.18;4.43;;;;;;;17.87;53.11;101094.94;5060795;28;20023;-24
2022/07/03 01:10:05;;;;;;;4.63;4.30;;;;;;;17.86;53.11;101119.84;5071388;28;20131;-24
2022/07/03 01:12:37;;;;;;;4.65;4.35;;;;;;;17.84;53.39;101111.88;5072303;28;20044;-25
2022/07/03 01:15:11;;;;;;;5.13;4.72;;;;;;;17.81;53.27;101109.34;5073111;28;20037;-25
2022/07/03 01:17:57;;;;;;;4.95;4.55;;;;;;;17.78;53.33;101107.63;5056258;28;20029;-24
2022/07/03 01:20:27;;;;;;;5.63;5.03;;;;;;;17.79;53.50;101105.84;5068242;28;20025;-25
2022/07/03 01:22:58;;;;;;;5.20;4.83;;;;;;;17.74;53.60;101105.97;5070167;28;20480;-27
2022/07/03 01:25:24;;;;;;;5.95;5.55;;;;;;;17.71;53.61;101103.44;5060786;28;20020;-27
2022/07/03 01:28:08;;;;;;;5.00;4.68;;;;;;;17.71;54.34;101103.44;5065741;28;20132;-27
2022/07/03 01:30:38;;;;;;;5.13;4.82;;;;;;;17.66;53.80;101095.56;5068312;28;20033;-26
2022/07/03 01:33:16;;;;;;;5.93;5.32;;;;;;;17.67;54.09;101107.09;5062949;28;20056;-27
2022/07/03 01:35:47;;;;;;;5.63;5.22;;;;;;;17.65;54.16;101098.28;5067581;28;20638;-27
2022/07/03 01:38:13;;;;;;;5.15;4.75;;;;;;;17.63;54.41;101097.44;5067308;28;20020;-27
2022/07/03 01:40:40;;;;;;;5.30;4.82;;;;;;;17.57;54.08;101095.84;5065755;28;20028;-27
2022/07/03 01:43:08;;;;;;;4.97;4.60;;;;;;;17.54;54.38;101095.97;5070811;28;20442;-27
2022/07/03 01:45:41;;;;;;;6.18;5.32;;;;;;;17.53;54.98;101091.53;5071830;28;20399;-27
2022/07/03 01:48:07;;;;;;;5.05;4.63;;;;;;;17.48;54.60;101094.38;5068160;28;20399;-26
2022/07/03 01:50:33;;;;;;;5.40;5.00;;;;;;;17.48;54.91;101088.16;5065714;28;20074;-27
2022/07/03 01:53:04;;;;;;;5.28;4.97;;;;;;;17.43;55.04;101088.28;5062116;28;20028;-27
2022/07/03 01:55:31;;;;;;;5.45;5.13;;;;;;;17.38;54.85;101083.13;5059698;28;20032;-27
2022/07/03 01:57:57;;;;;;;5.63;5.13;;;;;;;17.41;55.06;101076.81;5067464;28;20400;-27
2022/07/03 02:00:22;;;;;;;5.47;4.97;;;;;;;17.37;55.43;101077.84;5050837;28;20033;-27
2022/07/03 02:03:02;;;;;;;5.28;4.90;;;;;;;17.33;55.42;101076.19;5071023;28;20031;-26
2022/07/03 02:05:43;;;;;;;5.60;5.20;;;;;;;17.28;55.30;101079.84;5070318;28;20110;-26
2022/07/03 02:08:43;;;;;;;5.30;5.00;;;;;;;17.27;55.49;101088.75;5062244;28;20039;-26
2022/07/03 02:11:19;;;;;;;5.32;5.03;;;;;;;17.24;55.69;101085.34;5070342;28;20020;-26
2022/07/03 02:14:11;;;;;;;5.80;5.30;;;;;;;17.20;55.74;101089.00;5068930;28;20032;-27
2022/07/03 02:17:02;;;;;;;6.22;5.72;;;;;;;17.20;55.74;101087.19;5064731;28;20016;-27
2022/07/03 02:19:51;;;;;;;5.68;5.28;;;;;;;17.17;55.91;101092.63;5068075;28;20046;-27
2022/07/03 02:22:19;;;;;;;5.57;5.18;;;;;;;17.17;56.42;101092.63;5059252;28;20048;-27
2022/07/03 02:24:46;;;;;;;5.50;5.10;;;;;;;17.10;55.73;101096.41;5069460;28;20020;-26
2022/07/03 02:27:22;;;;;;;5.47;4.97;;;;;;;17.04;56.01;101087.63;5070428;28;20026;-27
2022/07/03 02:29:51;;;;;;;5.63;5.22;;;;;;;17.03;56.18;101093.88;5064297;28;20034;-27
2022/07/03 02:32:23;;;;;;;5.35;4.97;;;;;;;16.99;56.39;101089.56;5069719;28;20020;-26
2022/07/03 02:35:11;;;;;;;6.15;5.40;;;;;;;16.98;56.39;101087.84;5069419;28;20062;-26
2022/07/03 02:38:00;;;;;;;5.65;5.25;;;;;;;16.95;56.67;101081.69;5069739;28;20111;-27
2022/07/03 02:40:28;;;;;;;5.70;5.30;;;;;;;16.91;56.59;101080.94;5064357;28;20032;-27
2022/07/03 02:43:12;;;;;;;5.57;5.10;;;;;;;16.87;56.27;101085.47;5071252;28;20044;-27
2022/07/03 02:45:55;;;;;;;6.28;5.78;;;;;;;16.86;56.52;101085.50;5058705;28;20043;-27
2022/07/03 02:48:40;;;;;;;5.80;5.40;;;;;;;16.85;56.65;101081.09;5068908;28;20017;-27
2022/07/03 02:51:10;;;;;;;5.75;5.35;;;;;;;16.80;56.52;101083.88;5067506;28;20028;-27
2022/07/03 02:53:41;;;;;;;5.80;5.43;;;;;;;16.76;56.93;101087.56;5057937;28;20028;-24
2022/07/03 02:56:26;;;;;;;5.90;5.50;;;;;;;16.68;56.68;101091.31;5070005;28;20162;-25
2022/07/03 02:59:04;;;;;;;5.40;5.00;;;;;;;16.67;56.58;101078.03;5062730;28;20028;-25
2022/07/03 03:01:32;;;;;;;6.03;5.50;;;;;;;16.64;57.01;101079.00;5063617;28;20415;-25
2022/07/03 03:04:08;;;;;;;5.82;5.32;;;;;;;16.66;56.96;101076.28;5071983;28;20024;-24
2022/07/03 03:06:36;;;;;;;5.82;5.43;;;;;;;16.59;56.84;101077.38;5067593;28;20067;-25
2022/07/03 03:09:07;;;;;;;5.90;5.50;;;;;;;16.57;56.92;101069.44;5069624;28;20055;-25
2022/07/03 03:11:44;;;;;;;6.00;5.50;;;;;;;16.59;57.15;101059.63;5064451;28;20071;-25
2022/07/03 03:14:12;;;;;;;5.63;5.22;;;;;;;16.56;57.24;101065.03;5068941;28;20481;-25
2022/07/03 03:16:50;;;;;;;5.25;4.90;;;;;;;16.51;57.50;101065.16;5069814;28;20029;-25
2022/07/03 03:19:20;;;;;;;6.18;5.63;;;;;;;16.53;57.23;101066.00;5070018;28;20028;-25
2022/07/03 03:21:57;;;;;;;5.88;5.38;;;;;;;16.51;57.38;101066.97;5069800;28;20032;-25
2022/07/03 03:24:22;;;;;;;5.45;5.10;;;;;;;16.46;57.23;101072.41;5068691;28;20024;-25
2022/07/03 03:26:48;;;;;;;5.97;5.47;;;;;;;16.44;57.26;101074.22;5060236;28;20536;-25
2022/07/03 03:29:13;;;;;;;6.22;5.82;;;;;;;16.41;57.31;101067.19;5066488;28;20116;-24
2022/07/03 03:31:38;;;;;;;5.80;5.40;;;;;;;16.37;57.65;101065.53;5071117;28;20130;-25
2022/07/03 03:34:04;;;;;;;5.40;5.10;;;;;;;16.33;57.62;101063.88;5073114;28;20028;-25
2022/07/03 03:36:29;;;;;;;5.20;4.90;;;;;;;16.34;57.90;101064.75;5068790;28;20024;-25
2022/07/03 03:38:55;;;;;;;5.65;5.25;;;;;;;16.33;57.97;101058.56;5070364;28;20028;-25
2022/07/03 03:41:20;;;;;;;6.05;5.63;;;;;;;16.32;57.98;101061.25;5070855;28;20023;-25
2022/07/03 03:43:46;;;;;;;5.68;5.28;;;;;;;16.32;57.95;101066.56;5044722;28;20024;-24
2022/07/03 03:46:14;;;;;;;5.97;5.57;;;;;;;16.29;57.98;101056.91;5073862;28;20480;-25
2022/07/03 03:48:39;;;;;;;6.28;5.88;;;;;;;16.28;57.94;101056.00;5069931;28;20439;-25
2022/07/03 03:51:05;;;;;;;5.20;4.90;;;;;;;16.26;57.88;101051.66;5069691;28;20032;-24
2022/07/03 03:53:31;;;;;;;6.38;5.88;;;;;;;16.26;58.14;101065.84;5068850;28;20488;-25
2022/07/03 03:56:03;;;;;;;6.00;5.60;;;;;;;16.26;58.12;101071.16;5069072;28;20569;-25
2022/07/03 03:58:31;;;;;;;5.85;5.45;;;;;;;16.23;57.84;101073.91;5069880;28;20028;-25
2022/07/03 04:00:57;;;;;;;6.22;5.82;;;;;;;16.20;57.97;101062.47;5071169;28;20032;-24
2022/07/03 04:03:23;;;;;;;6.15;5.75;;;;;;;16.19;58.08;101066.91;5073227;28;20033;-25
2022/07/03 04:05:49;;;;;;;6.10;5.45;;;;;;;16.18;58.02;101061.63;5067481;28;20028;-25
2022/07/03 04:08:14;;;;;;;6.15;5.75;;;;;;;16.20;58.40;101059.81;5072116;28;20024;-25
2022/07/03 04:10:39;;;;;;;6.10;5.50;;;;;;;16.18;57.88;101053.66;5066977;28;20126;-25
2022/07/03 04:13:05;;;;;;;6.03;5.63;;;;;;;16.16;58.38;101043.94;5068260;28;20041;-24
2022/07/03 04:15:31;;;;;;;6.03;5.53;;;;;;;16.17;58.43;101052.75;5068909;28;20066;-24
2022/07/03 04:17:56;;;;;;;5.82;5.43;;;;;;;16.15;58.08;101049.28;5069438;28;20029;-25
2022/07/03 04:20:22;;;;;;;6.70;6.20;;;;;;;16.20;59.01;101043.84;5070505;28;20401;-24
2022/07/03 04:22:50;;;;;;;5.45;5.05;;;;;;;16.18;58.20;101040.34;5067597;28;20068;-24
2022/07/03 04:25:15;;;;;;;6.05;5.55;;;;;;;16.18;58.56;101043.00;5068841;28;20028;-24
2022/07/03 04:27:41;;;;;;;5.88;5.43;;;;;;;16.24;58.62;101041.03;5068430;28;20388;-25
2022/07/03 04:30:10;;;;;;;6.10;5.60;;;;;;;16.29;58.74;101036.50;5064343;28;20020;-24
2022/07/03 04:32:39;;;;;;;5.95;5.45;;;;;;;16.36;59.40;101045.16;5067861;28;20056;-26
2022/07/03 04:35:05;;;;;;;6.50;6.00;;;;;;;16.38;59.95;101030.00;5072454;28;20550;-24
2022/07/03 04:37:30;;;;;;;6.03;5.63;;;;;;;16.42;58.79;101030.81;5049750;28;20032;-25
2022/07/03 04:39:55;;;;;;;6.30;5.80;;;;;;;16.45;58.53;101038.72;5063434;28;20028;-24
2022/07/03 04:42:21;;;;;;;5.90;5.50;;;;;;;16.52;59.59;101034.97;5068820;28;20107;-24
2022/07/03 04:44:46;;;;;;;6.25;5.85;;;;;;;16.57;58.52;101028.66;5070769;28;20029;-24
2022/07/03 04:47:12;;;;;;;6.05;5.65;;;;;;;16.59;58.91;101034.78;5069954;28;20071;-25
2022/07/03 04:49:38;;;;;;;5.88;5.38;;;;;;;16.58;58.60;101027.72;5070072;28;20246;-24
2022/07/03 04:52:03;;;;;;;6.30;5.78;;;;;;;16.61;58.31;101032.97;5069900;28;20112;-24
2022/07/03 04:54:28;;;;;;;5.95;5.55;;;;;;;16.69;58.53;101028.28;5072015;28;20028;-24
2022/07/03 04:56:54;;;;;;;6.05;5.65;;;;;;;16.73;58.14;101031.72;5070346;28;20170;-24
2022/07/03 04:59:19;;;;;;;5.43;5.13;;;;;;;16.79;58.10;101023.56;5066411;28;20040;-24
2022/07/03 05:01:47;;;;;;;6.25;5.85;;;;;;;16.84;58.55;101028.75;5068972;28;20024;-24
2022/07/03 05:04:13;;;;;;;5.65;5.15;;;;;;;16.85;58.69;101027.81;5052076;28;20503;-24
2022/07/03 05:06:39;;;;;;;5.25;4.95;;;;;;;16.90;58.15;101012.56;5072255;28;20025;-25
2022/07/03 05:09:04;;;;;;;5.85;5.45;;;;;;;16.97;58.06;101015.94;5048519;28;20574;-26
2022/07/03 05:11:30;;;;;;;5.90;5.30;;;;;;;17.05;57.98;101021.91;5065987;28;20031;-27
2022/07/03 05:13:55;;;;;;;5.88;5.47;;;;;;;17.15;57.96;101019.84;5067527;28;20037;-26
2022/07/03 05:16:20;;;;;;;6.07;5.60;;;;;;;17.23;57.57;101019.59;5070161;28;20043;-25
2022/07/03 05:18:46;;;;;;;5.93;5.53;;;;;;;17.27;57.83;101026.59;5069458;28;20040;-24
2022/07/03 05:21:11;;;;;;;6.15;5.65;;;;;;;17.33;57.58;101025.53;5071241;28;20028;-26
2022/07/03 05:23:37;;;;;;;5.70;5.20;;;;;;;17.36;58.12;101028.97;5066369;28;20024;-24
2022/07/03 05:26:02;;;;;;;5.38;4.97;;;;;;;17.39;58.45;101017.31;5068629;28;20039;-24
2022/07/03 05:28:27;;;;;;;5.22;4.88;;;;;;;17.43;58.40;101014.50;5063975;28;20475;-25
2022/07/03 05:30:53;;;;;;;5.75;5.35;;;;;;;17.50;58.93;101020.50;5071734;28;20107;-24
2022/07/03 05:33:18;;;;;;;5.35;4.95;;;;;;;17.57;58.67;101015.84;5069311;28;20396;-25
2022/07/03 05:35:43;;;;;;;6.13;5.53;;;;;;;17.63;58.70;101015.66;5068297;28;20054;-25
2022/07/03 05:38:09;;;;;;;5.57;5.18;;;;;;;17.70;58.34;101011.84;5067778;28;20492;-24
2022/07/03 05:40:34;;;;;;;5.75;5.25;;;;;;;17.80;58.32;101011.53;5070494;28;20112;-25
2022/07/03 05:42:59;;;;;;;5.85;5.45;;;;;;;17.86;58.23;101003.31;5066903;28;20111;-25
2022/07/03 05:45:25;;;;;;;5.47;5.07;;;;;;;17.94;58.53;100997.75;5067520;28;20369;-25
2022/07/03 05:47:50;;;;;;;5.57;5.18;;;;;;;18.04;58.47;101003.63;5069198;28;20040;-26
2022/07/03 05:50:15;;;;;;;5.43;5.13;;;;;;;18.13;58.41;101005.09;5068305;28;20029;-26
2022/07/03 05:52:41;;;;;;;5.30;5.00;;;;;;;18.20;58.71;101006.63;5047624;28;20427;-25
2022/07/03 05:55:07;;;;;;;5.78;5.38;;;;;;;18.30;57.95;101004.50;5064740;28;20370;-25
2022/07/03 05:57:32;;;;;;;5.60;5.13;;;;;;;18.41;58.12;101006.78;5065072;28;20052;-27
2022/07/03 05:59:58;;;;;;;5.13;4.80;;;;;;;18.49;58.05;101009.16;5066251;28;20059;-25
2022/07/03 06:02:23;;;;;;;5.22;4.88;;;;;;;18.58;57.65;100999.00;5072420;28;20056;-25
2022/07/03 06:04:48;;;;;;;5.40;4.90;;;;;;;18.68;57.69;100999.53;5069551;28;20078;-25
2022/07/03 06:07:16;;;;;;;5.30;4.90;;;;;;;18.79;57.68;100996.47;5064486;28;20027;-25
2022/07/03 06:09:42;;;;;;;5.25;4.95;;;;;;;18.91;57.53;101010.28;5066776;28;20028;-25
2022/07/03 06:12:07;;;;;;;6.00;4.70;;;;;;;19.02;57.46;101009.84;5069560;28;20159;-27
2022/07/03 06:14:33;;;;;;;4.57;4.18;;;;;;;19.09;57.05;101006.91;5045664;28;20032;-24
2022/07/03 06:16:58;;;;;;;4.93;4.53;;;;;;;19.19;57.14;101015.44;5042864;28;20032;-25
2022/07/03 06:19:23;;;;;;;4.88;4.57;;;;;;;19.29;57.40;101010.59;5064858;28;20078;-24
2022/07/03 06:21:49;;;;;;;5.05;4.75;;;;;;;19.40;57.47;100995.91;5068618;28;20032;-25
2022/07/03 06:24:14;;;;;;;4.97;4.65;;;;;;;19.53;57.28;100999.81;5064812;28;20452;-25
2022/07/03 06:26:39;;;;;;;5.00;4.60;;;;;;;19.65;57.36;101006.47;5047863;28;20441;-25
2022/07/03 06:29:05;;;;;;;5.07;4.68;;;;;;;19.80;57.12;101004.91;5067464;28;20032;-25
2022/07/03 06:31:31;;;;;;;5.22;4.75;;;;;;;19.87;57.04;101002.84;5066473;28;20039;-25
2022/07/03 06:33:57;;;;;;;5.10;4.72;;;;;;;19.95;57.01;100991.81;5065080;28;20400;-25
2022/07/03 06:36:22;;;;;;;5.05;4.65;;;;;;;20.07;57.15;100996.66;5047272;28;20055;-25
2022/07/03 06:38:47;;;;;;;5.00;4.60;;;;;;;20.18;56.74;100998.00;5069269;28;20025;-27
2022/07/03 06:41:13;;;;;;;4.90;4.50;;;;;;;20.28;56.47;100998.47;5069204;28;20058;-26
2022/07/03 06:43:38;;;;;;;5.00;4.57;;;;;;;20.35;56.64;100995.44;5066280;28;20116;-26
2022/07/03 06:46:04;;;;;;;5.00;4.60;;;;;;;20.46;56.04;100994.06;5063309;28;20024;-27
2022/07/03 06:48:29;;;;;;;5.50;4.57;;;;;;;20.59;56.35;100992.56;5064821;28;20111;-27
2022/07/03 06:50:54;;;;;;;4.65;4.35;;;;;;;20.71;56.58;100992.94;5069076;28;20032;-27
2022/07/03 06:53:20;;;;;;;4.53;4.22;;;;;;;20.83;56.24;100981.63;5049294;28;20035;-27
2022/07/03 06:55:45;;;;;;;5.18;4.68;;;;;;;20.94;55.94;100982.97;5063751;28;20069;-25
2022/07/03 06:58:11;;;;;;;4.70;4.30;;;;;;;21.07;55.76;100986.78;5065109;28;20032;-25
2022/07/03 07:00:38;;;;;;;4.50;4.20;;;;;;;21.19;55.99;100985.31;5063868;28;20032;-25
2022/07/03 07:03:03;;;;;;;4.20;3.90;;;;;;;21.31;55.78;100993.72;5046194;28;20126;-25
2022/07/03 07:05:29;;;;;;;4.28;3.97;;;;;;;21.41;55.50;100981.59;5064973;28;20040;-25
2022/07/03 07:07:54;;;;;;;4.40;4.07;;;;;;;21.55;55.60;100986.25;5068107;28;20131;-26
2022/07/03 07:10:20;;;;;;;7.32;3.78;;;;;;;21.69;55.68;100988.22;5070993;28;20021;-27
2022/07/03 07:12:45;;;;;;;4.15;3.90;;;;;;;21.85;55.87;100988.34;5062293;28;20499;-24
2022/07/03 07:15:10;;;;;;;4.78;4.38;;;;;;;21.99;55.35;100984.94;5064971;28;20450;-25
2022/07/03 07:17:36;;;;;;;4.40;4.10;;;;;;;22.11;55.21;100977.19;5065907;28;20155;-25
2022/07/03 07:20:01;;;;;;;3.92;3.63;;;;;;;22.24;55.86;100977.41;5041885;28;20510;-25
2022/07/03 07:22:26;;;;;;;4.07;3.75;;;;;;;22.38;55.40;100982.88;5065402;28;20660;-25
2022/07/03 07:24:52;;;;;;;4.05;3.75;;;;;;;22.46;54.52;100982.47;5059814;28;20031;-25
2022/07/03 07:27:18;;;;;;;3.55;3.22;;;;;;;22.56;54.92;100980.16;5063209;28;20121;-27
2022/07/03 07:29:43;;;;;;;4.13;3.80;;;;;;;22.66;54.06;100976.03;5063108;28;20527;-27
2022/07/03 07:32:08;;;;;;;3.58;3.28;;;;;;;22.76;53.80;100972.81;5065994;28;20024;-27
2022/07/03 07:34:34;;;;;;;3.72;3.42;;;;;;;22.94;53.70;100970.91;5064750;28;20476;-27
2022/07/03 07:36:59;;;;;;;3.88;3.58;;;;;;;23.07;54.02;100971.94;5066601;28;20438;-27
2022/07/03 07:39:24;;;;;;;3.35;3.15;;;;;;;23.19;53.53;100977.56;5067069;28;20063;-27
2022/07/03 07:41:50;;;;;;;4.78;3.35;;;;;;;23.30;53.75;100971.56;5068111;28;20103;-27
2022/07/03 07:44:15;;;;;;;3.53;3.22;;;;;;;23.42;53.55;100967.31;5067216;28;20111;-27
2022/07/03 07:46:40;;;;;;;2.97;2.78;;;;;;;23.55;52.82;100967.47;5067505;28;20013;-27
2022/07/03 07:49:06;;;;;;;3.25;3.05;;;;;;;23.70;52.86;100973.75;5069599;28;20036;-27
2022/07/03 07:51:31;;;;;;;3.38;3.15;;;;;;;23.84;53.08;100971.09;5068945;28;20024;-27
2022/07/03 07:53:57;;;;;;;3.33;3.03;;;;;;;23.89;52.47;100965.44;5067829;28;20021;-27
2022/07/03 07:56:26;;;;;;;3.72;3.50;;;;;;;24.01;52.54;100965.66;5069342;28;20067;-26
2022/07/03 07:58:52;;;;;;;3.13;2.83;;;;;;;24.12;52.08;100968.56;5066566;28;20028;-27
2022/07/03 08:06:49;;;;;;;2.85;2.65;;;;;;;24.52;51.41;100958.94;5064416;28;20036;-25
2022/07/03 08:09:14;;;;;;;3.47;3.17;;;;;;;24.68;52.21;100958.81;5066141;28;20032;-25
2022/07/03 08:11:40;;;;;;;3.85;3.15;;;;;;;24.82;52.12;100950.69;5068676;28;20036;-25
2022/07/03 08:14:07;;;;;;;3.03;2.83;;;;;;;24.90;51.47;100952.91;5065793;28;20036;-27
2022/07/03 08:16:33;;;;;;;3.35;3.05;;;;;;;25.01;51.57;100948.66;5068895;28;20103;-25
2022/07/03 08:18:59;;;;;;;3.67;3.38;;;;;;;25.21;51.41;100961.66;5072192;28;20024;-27
2022/07/03 08:21:24;;;;;;;3.35;2.83;;;;;;;25.30;51.30;100959.31;5070760;28;20020;-27
2022/07/03 08:23:49;;;;;;;3.00;2.72;;;;;;;25.39;50.75;100956.00;5071952;28;20012;-25
2022/07/03 08:26:15;;;;;;;2.83;2.63;;;;;;;25.52;50.91;100952.47;5072287;28;20032;-25
2022/07/03 08:28:40;;;;;;;3.38;3.05;;;;;;;25.67;50.40;100956.84;5070402;28;20017;-25
2022/07/03 08:31:05;;;;;;;2.92;2.72;;;;;;;25.78;50.38;100949.84;5067798;28;20131;-24
2022/07/03 08:33:30;;;;;;;2.30;2.20;;;;;;;25.87;50.41;100946.50;5069546;28;20063;-24
2022/07/03 08:35:56;;;;;;;2.90;2.70;;;;;;;26.13;48.08;100946.50;5071600;28;20040;-25
2022/07/03 08:38:29;;;;;;;2.35;2.13;;;;;;;26.29;49.24;100943.59;5070136;28;20056;-25
2022/07/03 08:40:57;;;;;;;2.75;2.55;;;;;;;26.37;49.07;100943.03;5070555;28;20472;-24
2022/07/03 08:43:22;;;;;;;2.90;2.70;;;;;;;26.45;49.29;100929.84;5070841;28;20484;-25
2022/07/03 08:45:48;;;;;;;2.63;2.50;;;;;;;26.89;44.48;100932.06;5067623;28;20067;-25
2022/07/03 08:48:14;;;;;;;4.10;2.10;;;;;;;27.08;42.84;100938.84;5069574;28;20025;-25
2022/07/03 08:50:39;;;;;;;2.80;2.40;;;;;;;26.76;42.38;100933.00;5070575;28;20110;-25
2022/07/03 08:53:05;;;;;;;3.17;2.45;;;;;;;26.84;41.51;100939.69;5053002;28;20052;-25
2022/07/03 08:55:30;;;;;;;2.58;2.40;;;;;;;27.40;41.06;100935.50;5070668;28;20508;-24
2022/07/03 08:57:56;;;;;;;3.13;2.58;;;;;;;27.59;40.49;100939.50;5069560;28;20025;-25
2022/07/03 09:00:21;;;;;;;2.30;2.10;;;;;;;27.70;39.98;100931.44;5069445;28;20016;-25
2022/07/03 09:02:48;;;;;;;2.30;2.17;;;;;;;26.91;38.93;100932.84;5069388;28;20077;-26
2022/07/03 09:05:15;;;;;;;2.25;2.15;;;;;;;27.04;40.05;100924.66;5068918;28;20450;-27
2022/07/03 09:07:43;;;;;;;19.25;4.07;;;;;;;27.70;39.79;100931.44;5070031;28;20082;-24
2022/07/03 09:10:10;;;;;;;3.97;3.10;;;;;;;27.93;39.04;100931.47;5067175;28;20041;-25
2022/07/03 09:12:37;;;;;;;3.88;2.22;;;;;;;28.10;39.55;100929.28;5067895;28;20040;-26
2022/07/03 09:15:04;;;;;;;4.18;2.15;;;;;;;28.27;38.64;100928.81;5069283;28;20388;-26
2022/07/03 09:17:30;;;;;;;2.92;2.20;;;;;;;28.50;36.32;100928.78;5070706;28;20499;-25
2022/07/03 09:19:58;;;;;;;2.10;2.00;;;;;;;28.72;37.59;100931.59;5067606;28;20413;-25
2022/07/03 09:22:28;;;;;;;5.18;2.58;;;;;;;28.59;38.23;100926.31;5069287;28;20035;-25
2022/07/03 09:25:15;;;;;;;4.15;2.22;;;;;;;28.67;36.90;100923.81;5058603;28;20078;-25
2022/07/03 09:27:51;;;;;;;2.85;2.65;;;;;;;28.94;36.17;100917.09;5065440;28;20547;-25
2022/07/03 09:30:17;;;;;;;2.20;2.08;;;;;;;28.96;35.91;100909.72;5067413;28;20063;-26
2022/07/03 09:32:44;;;;;;;2.13;2.03;;;;;;;29.22;35.37;100920.22;5049357;28;20098;-25
2022/07/03 09:35:19;;;;;;;3.20;2.33;;;;;;;29.09;34.98;100908.66;5067501;28;20035;-25
2022/07/03 09:38:04;;;;;;;2.25;2.00;;;;;;;28.84;35.82;100897.16;5057147;28;20040;-25
2022/07/03 09:40:50;;;;;;;2.25;1.92;;;;;;;29.30;35.62;100898.69;5059338;28;20115;-25
2022/07/03 09:43:15;;;;;;;2.05;1.95;;;;;;;29.01;36.12;100907.47;5062213;28;20031;-25
2022/07/03 09:45:55;;;;;;;2.17;2.08;;;;;;;28.67;36.51;100904.81;5063739;28;20029;-25
2022/07/03 09:48:25;;;;;;;2.05;1.88;;;;;;;28.32;36.74;100911.31;5064127;28;20024;-25
2022/07/03 09:51:14;;;;;;;1.95;1.83;;;;;;;28.43;37.69;100906.75;5064043;28;20099;-25
2022/07/03 09:53:57;;;;;;;2.05;1.95;;;;;;;29.09;35.79;100900.53;5065545;28;20074;-26
2022/07/03 09:56:28;;;;;;;1.90;1.80;;;;;;;28.51;36.28;100894.41;5064861;28;20483;-25
2022/07/03 09:59:03;;;;;;;2.92;2.30;;;;;;;28.46;36.92;100902.03;5058745;28;20052;-26
2022/07/03 10:01:29;;;;;;;1.85;1.75;;;;;;;28.83;35.65;100893.56;5069342;28;20138;-25
2022/07/03 10:03:56;;;;;;;2.60;2.10;;;;;;;28.97;34.74;100892.44;5067907;28;20147;-25
2022/07/03 10:06:21;;;;;;;2.28;2.08;;;;;;;29.19;34.75;100890.63;5061389;28;20293;-25
2022/07/03 10:08:47;;;;;;;1.75;1.65;;;;;;;29.54;33.81;100884.00;5069042;28;20021;-25
2022/07/03 10:11:13;;;;;;;2.03;1.83;;;;;;;29.64;34.14;100896.81;5070711;28;20028;-25
2022/07/03 10:13:40;;;;;;;1.77;1.65;;;;;;;29.49;34.37;100885.38;5070938;28;20146;-25
2022/07/03 10:16:06;;;;;;;1.55;1.45;;;;;;;29.45;33.81;100901.09;5067956;28;20035;-25
2022/07/03 10:18:35;;;;;;;3.80;1.92;;;;;;;29.33;32.92;100893.00;5057686;28;20024;-28
2022/07/03 10:21:01;;;;;;;1.20;1.20;;;;;;;29.80;34.03;100893.59;5064159;28;20021;-25
2022/07/03 10:23:27;;;;;;;2.55;1.40;;;;;;;29.60;32.96;100893.50;5067374;28;20044;-25
2022/07/03 10:25:53;;;;;;;2.50;1.50;;;;;;;29.50;33.25;100885.25;5062550;28;20027;-25
2022/07/03 10:28:19;;;;;;;2.05;1.50;;;;;;;29.65;32.86;100893.09;5067151;28;21252;-25
2022/07/03 10:30:46;;;;;;;1.45;1.45;;;;;;;29.74;32.41;100894.16;5063451;28;20039;-25
2022/07/03 10:33:12;;;;;;;2.53;1.70;;;;;;;30.07;32.74;100886.69;5064468;28;20409;-25
2022/07/03 10:35:53;;;;;;;1.67;1.58;;;;;;;30.17;33.01;100879.47;5067636;28;20546;-25
2022/07/03 10:38:39;;;;;;;3.92;1.75;;;;;;;30.42;33.52;100876.41;5083245;28;20053;-24
2022/07/03 10:47:04;;;;;;;1.95;1.52;;;;;;;30.42;32.46;100876.41;5068055;28;20035;-25
2022/07/03 10:49:30;;;;;;;2.42;1.60;;;;;;;30.38;31.74;100874.97;5065473;28;20024;-25
2022/07/03 10:52:00;;;;;;;1.42;1.33;;;;;;;30.38;31.90;100874.97;5063264;28;20443;-27
2022/07/03 10:54:27;;;;;;;1.20;1.20;;;;;;;30.40;31.81;100860.22;5066544;28;20049;-27
2022/07/03 10:56:58;;;;;;;1.45;1.35;;;;;;;30.40;31.04;100870.25;5066906;28;20119;-27
2022/07/03 10:59:36;;;;;;;1.50;1.10;;;;;;;30.50;31.92;100852.06;5062412;28;20028;-27
2022/07/03 11:02:20;;;;;;;2.15;1.20;;;;;;;30.58;30.47;100864.97;5064321;28;20033;-27
2022/07/03 11:05:06;;;;;;;1.40;1.15;;;;;;;30.64;30.60;100860.84;5061904;28;20085;-27
2022/07/03 11:07:39;;;;;;;1.52;1.42;;;;;;;30.57;30.46;100857.78;5016738;28;20449;-27
2022/07/03 11:10:13;;;;;;;1.83;1.23;;;;;;;30.54;30.27;100848.06;5063679;28;20664;-27
2022/07/03 11:12:57;;;;;;;1.45;1.10;;;;;;;30.77;30.23;100853.25;5062652;28;20040;-25
2022/07/03 11:15:45;;;;;;;1.10;1.10;;;;;;;30.83;30.01;100849.13;5069026;28;20029;-27
2022/07/03 11:18:21;;;;;;;1.33;1.23;;;;;;;30.93;30.19;100846.38;5062483;28;20161;-27
2022/07/03 11:20:49;;;;;;;1.10;1.10;;;;;;;30.89;30.13;100853.13;5066696;28;20232;-27
2022/07/03 11:23:26;;;;;;;1.42;1.33;;;;;;;30.86;29.34;100846.09;5067297;28;20400;-27
2022/07/03 11:25:57;;;;;;;1.85;1.20;;;;;;;30.90;29.37;100849.44;5062023;28;20134;-27
2022/07/03 11:28:32;;;;;;;1.95;1.40;;;;;;;30.91;29.44;100859.31;5061832;28;20385;-27
2022/07/03 11:31:16;;;;;;;1.33;1.10;;;;;;;30.97;29.32;100847.81;5063368;28;20476;-27
2022/07/03 11:33:46;;;;;;;2.13;1.33;;;;;;;30.98;29.80;100839.50;5066564;28;20464;-27
2022/07/03 11:36:12;;;;;;;;;;;;;;;30.90;29.74;100852.97;5062553;28;20028;-27
2022/07/03 11:38:38;;;;;;;1.20;1.10;;;;;;;30.95;30.08;100841.66;5064601;28;19965;-27
2022/07/03 11:41:07;;;;;;;1.08;1.00;;;;;;;30.85;29.72;100836.22;5064920;28;20033;-27
2022/07/03 11:43:34;;;;;;;2.30;1.52;;;;;;;30.69;30.23;100834.91;5061302;28;20070;-27